sensor_id;sensor_type;location;lat;lon;timestamp;P1;durP1;ratioP1;P2;durP2;ratioP2
79533;SDS011;68982;52.160;6.736;2023-09-07T00:00:29;5.05;;;3.88;;
79533;SDS011;68982;52.160;6.736;2023-09-07T00:02:55;9.00;;;4.13;;
79533;SDS011;68982;52.160;6.736;2023-09-07T00:05:20;5.28;;;3.50;;
79533;SDS011;68982;52.160;6.736;2023-09-07T00:07:45;8.00;;;3.88;;
79533;SDS011;68982;52.160;6.736;2023-09-07T00:10:11;5.88;;;3.95;;
79533;SDS011;68982;52.160;6.736;2023-09-07T00:12:36;6.60;;;4.00;;
79533;SDS011;68982;52.160;6.736;2023-09-07T00:15:04;5.68;;;4.10;;
79533;SDS011;68982;52.160;6.736;2023-09-07T00:17:33;4.80;;;4.15;;
79533;SDS011;68982;52.160;6.736;2023-09-07T00:19:58;5.03;;;3.60;;
79533;SDS011;68982;52.160;6.736;2023-09-07T00:22:24;7.63;;;4.10;;
79533;SDS011;68982;52.160;6.736;2023-09-07T00:24:52;5.88;;;4.32;;
79533;SDS011;68982;52.160;6.736;2023-09-07T00:27:17;6.05;;;3.90;;
79533;SDS011;68982;52.160;6.736;2023-09-07T00:29:43;5.03;;;4.03;;
79533;SDS011;68982;52.160;6.736;2023-09-07T00:32:08;7.03;;;5.05;;
79533;SDS011;68982;52.160;6.736;2023-09-07T00:34:34;6.28;;;4.07;;
79533;SDS011;68982;52.160;6.736;2023-09-07T00:37:00;7.60;;;4.20;;
79533;SDS011;68982;52.160;6.736;2023-09-07T00:39:25;6.15;;;3.92;;
79533;SDS011;68982;52.160;6.736;2023-09-07T00:41:51;6.55;;;4.47;;
79533;SDS011;68982;52.160;6.736;2023-09-07T00:44:16;5.45;;;4.22;;
79533;SDS011;68982;52.160;6.736;2023-09-07T00:46:42;5.07;;;3.90;;
79533;SDS011;68982;52.160;6.736;2023-09-07T00:49:09;6.40;;;3.67;;
79533;SDS011;68982;52.160;6.736;2023-09-07T00:51:36;5.70;;;4.40;;
79533;SDS011;68982;52.160;6.736;2023-09-07T00:54:01;6.32;;;4.28;;
79533;SDS011;68982;52.160;6.736;2023-09-07T00:56:27;5.35;;;3.80;;
79533;SDS011;68982;52.160;6.736;2023-09-07T00:58:53;8.75;;;4.10;;
79533;SDS011;68982;52.160;6.736;2023-09-07T01:01:20;4.85;;;4.22;;
79533;SDS011;68982;52.160;6.736;2023-09-07T01:03:47;4.97;;;4.10;;
79533;SDS011;68982;52.160;6.736;2023-09-07T01:06:13;6.28;;;4.53;;
79533;SDS011;68982;52.160;6.736;2023-09-07T01:08:44;6.50;;;4.30;;
79533;SDS011;68982;52.160;6.736;2023-09-07T01:11:14;4.53;;;3.97;;
79533;SDS011;68982;52.160;6.736;2023-09-07T01:13:45;5.93;;;4.13;;
79533;SDS011;68982;52.160;6.736;2023-09-07T01:16:12;5.38;;;4.47;;
79533;SDS011;68982;52.160;6.736;2023-09-07T01:18:38;7.40;;;4.35;;
79533;SDS011;68982;52.160;6.736;2023-09-07T01:21:07;6.32;;;4.63;;
79533;SDS011;68982;52.160;6.736;2023-09-07T01:23:35;6.15;;;5.03;;
79533;SDS011;68982;52.160;6.736;2023-09-07T01:26:01;6.47;;;4.43;;
79533;SDS011;68982;52.160;6.736;2023-09-07T01:28:27;5.97;;;4.13;;
79533;SDS011;68982;52.160;6.736;2023-09-07T01:30:52;5.45;;;4.18;;
79533;SDS011;68982;52.160;6.736;2023-09-07T01:33:18;6.47;;;4.22;;
79533;SDS011;68982;52.160;6.736;2023-09-07T01:35:43;6.13;;;4.40;;
79533;SDS011;68982;52.160;6.736;2023-09-07T01:38:10;6.78;;;4.28;;
79533;SDS011;68982;52.160;6.736;2023-09-07T01:40:35;5.43;;;4.00;;
79533;SDS011;68982;52.160;6.736;2023-09-07T01:43:01;5.80;;;4.32;;
79533;SDS011;68982;52.160;6.736;2023-09-07T01:45:26;7.60;;;4.50;;
79533;SDS011;68982;52.160;6.736;2023-09-07T01:47:51;5.38;;;4.13;;
79533;SDS011;68982;52.160;6.736;2023-09-07T01:50:17;6.35;;;4.32;;
79533;SDS011;68982;52.160;6.736;2023-09-07T01:52:45;8.63;;;4.38;;
79533;SDS011;68982;52.160;6.736;2023-09-07T01:55:13;5.90;;;4.38;;
79533;SDS011;68982;52.160;6.736;2023-09-07T01:57:39;5.95;;;4.50;;
79533;SDS011;68982;52.160;6.736;2023-09-07T02:00:04;7.25;;;4.47;;
79533;SDS011;68982;52.160;6.736;2023-09-07T02:02:30;6.88;;;4.57;;
79533;SDS011;68982;52.160;6.736;2023-09-07T02:04:56;5.00;;;4.18;;
79533;SDS011;68982;52.160;6.736;2023-09-07T02:07:21;7.07;;;5.60;;
79533;SDS011;68982;52.160;6.736;2023-09-07T02:09:46;6.32;;;4.13;;
79533;SDS011;68982;52.160;6.736;2023-09-07T02:12:12;5.35;;;3.90;;
79533;SDS011;68982;52.160;6.736;2023-09-07T02:14:37;6.15;;;4.40;;
79533;SDS011;68982;52.160;6.736;2023-09-07T02:17:03;7.50;;;4.50;;
79533;SDS011;68982;52.160;6.736;2023-09-07T02:19:29;6.93;;;4.35;;
79533;SDS011;68982;52.160;6.736;2023-09-07T02:21:54;5.50;;;4.45;;
79533;SDS011;68982;52.160;6.736;2023-09-07T02:24:19;6.05;;;4.40;;
79533;SDS011;68982;52.160;6.736;2023-09-07T02:26:45;9.10;;;4.85;;
79533;SDS011;68982;52.160;6.736;2023-09-07T02:29:13;6.30;;;4.60;;
79533;SDS011;68982;52.160;6.736;2023-09-07T02:31:42;5.97;;;4.72;;
79533;SDS011;68982;52.160;6.736;2023-09-07T02:34:07;6.45;;;4.93;;
79533;SDS011;68982;52.160;6.736;2023-09-07T02:36:33;6.88;;;4.93;;
79533;SDS011;68982;52.160;6.736;2023-09-07T02:39:00;5.63;;;4.72;;
79533;SDS011;68982;52.160;6.736;2023-09-07T02:41:26;6.25;;;4.30;;
79533;SDS011;68982;52.160;6.736;2023-09-07T02:43:52;5.60;;;4.72;;
79533;SDS011;68982;52.160;6.736;2023-09-07T02:46:17;8.65;;;4.75;;
79533;SDS011;68982;52.160;6.736;2023-09-07T02:48:42;9.20;;;5.05;;
79533;SDS011;68982;52.160;6.736;2023-09-07T02:51:08;7.28;;;5.38;;
79533;SDS011;68982;52.160;6.736;2023-09-07T02:53:33;6.35;;;5.10;;
79533;SDS011;68982;52.160;6.736;2023-09-07T02:55:58;6.63;;;4.75;;
79533;SDS011;68982;52.160;6.736;2023-09-07T02:58:27;6.78;;;4.93;;
79533;SDS011;68982;52.160;6.736;2023-09-07T03:00:52;5.38;;;4.65;;
79533;SDS011;68982;52.160;6.736;2023-09-07T03:03:18;6.32;;;5.05;;
79533;SDS011;68982;52.160;6.736;2023-09-07T03:05:43;6.60;;;5.07;;
79533;SDS011;68982;52.160;6.736;2023-09-07T03:08:10;7.07;;;5.05;;
79533;SDS011;68982;52.160;6.736;2023-09-07T03:10:36;6.45;;;5.25;;
79533;SDS011;68982;52.160;6.736;2023-09-07T03:15:28;5.97;;;5.00;;
79533;SDS011;68982;52.160;6.736;2023-09-07T03:17:54;9.35;;;5.65;;
79533;SDS011;68982;52.160;6.736;2023-09-07T03:20:19;6.88;;;5.30;;
79533;SDS011;68982;52.160;6.736;2023-09-07T03:22:45;7.70;;;5.30;;
79533;SDS011;68982;52.160;6.736;2023-09-07T03:25:10;7.38;;;5.53;;
79533;SDS011;68982;52.160;6.736;2023-09-07T03:27:37;6.25;;;5.22;;
79533;SDS011;68982;52.160;6.736;2023-09-07T03:30:03;9.88;;;5.40;;
79533;SDS011;68982;52.160;6.736;2023-09-07T03:32:30;7.18;;;5.72;;
79533;SDS011;68982;52.160;6.736;2023-09-07T03:34:58;7.85;;;5.50;;
79533;SDS011;68982;52.160;6.736;2023-09-07T03:37:24;9.85;;;5.28;;
79533;SDS011;68982;52.160;6.736;2023-09-07T03:39:50;11.00;;;6.07;;
79533;SDS011;68982;52.160;6.736;2023-09-07T03:42:16;6.70;;;5.68;;
79533;SDS011;68982;52.160;6.736;2023-09-07T03:44:41;8.63;;;6.10;;
79533;SDS011;68982;52.160;6.736;2023-09-07T03:47:06;8.73;;;5.93;;
79533;SDS011;68982;52.160;6.736;2023-09-07T03:49:32;8.20;;;5.70;;
79533;SDS011;68982;52.160;6.736;2023-09-07T03:51:57;7.53;;;5.67;;
79533;SDS011;68982;52.160;6.736;2023-09-07T03:54:23;7.72;;;6.10;;
79533;SDS011;68982;52.160;6.736;2023-09-07T03:56:48;10.73;;;6.40;;
79533;SDS011;68982;52.160;6.736;2023-09-07T03:59:13;7.70;;;6.10;;
79533;SDS011;68982;52.160;6.736;2023-09-07T04:01:39;9.13;;;5.90;;
79533;SDS011;68982;52.160;6.736;2023-09-07T04:04:04;8.65;;;6.13;;
79533;SDS011;68982;52.160;6.736;2023-09-07T04:06:30;9.05;;;6.05;;
79533;SDS011;68982;52.160;6.736;2023-09-07T04:08:58;8.68;;;6.25;;
79533;SDS011;68982;52.160;6.736;2023-09-07T04:11:23;8.80;;;6.70;;
79533;SDS011;68982;52.160;6.736;2023-09-07T04:13:48;8.70;;;5.95;;
79533;SDS011;68982;52.160;6.736;2023-09-07T04:16:14;9.05;;;6.32;;
79533;SDS011;68982;52.160;6.736;2023-09-07T04:18:39;7.70;;;5.95;;
79533;SDS011;68982;52.160;6.736;2023-09-07T04:21:05;7.70;;;6.07;;
79533;SDS011;68982;52.160;6.736;2023-09-07T04:23:31;8.32;;;6.45;;
79533;SDS011;68982;52.160;6.736;2023-09-07T04:26:06;11.43;;;7.45;;
79533;SDS011;68982;52.160;6.736;2023-09-07T04:28:33;8.93;;;6.65;;
79533;SDS011;68982;52.160;6.736;2023-09-07T04:30:58;9.38;;;6.75;;
79533;SDS011;68982;52.160;6.736;2023-09-07T04:33:24;8.00;;;6.43;;
79533;SDS011;68982;52.160;6.736;2023-09-07T04:35:49;10.68;;;7.40;;
79533;SDS011;68982;52.160;6.736;2023-09-07T04:38:14;10.48;;;6.68;;
79533;SDS011;68982;52.160;6.736;2023-09-07T04:40:40;8.85;;;7.03;;
79533;SDS011;68982;52.160;6.736;2023-09-07T04:43:05;8.95;;;7.20;;
79533;SDS011;68982;52.160;6.736;2023-09-07T04:45:30;13.35;;;8.07;;
79533;SDS011;68982;52.160;6.736;2023-09-07T04:47:56;7.75;;;6.43;;
79533;SDS011;68982;52.160;6.736;2023-09-07T04:50:21;9.43;;;6.90;;
79533;SDS011;68982;52.160;6.736;2023-09-07T04:52:46;8.48;;;6.70;;
79533;SDS011;68982;52.160;6.736;2023-09-07T04:55:12;7.77;;;6.40;;
79533;SDS011;68982;52.160;6.736;2023-09-07T04:57:37;7.72;;;6.50;;
79533;SDS011;68982;52.160;6.736;2023-09-07T05:00:03;12.55;;;7.72;;
79533;SDS011;68982;52.160;6.736;2023-09-07T05:02:31;12.73;;;6.93;;
79533;SDS011;68982;52.160;6.736;2023-09-07T05:04:56;8.63;;;6.13;;
79533;SDS011;68982;52.160;6.736;2023-09-07T05:07:22;12.15;;;7.18;;
79533;SDS011;68982;52.160;6.736;2023-09-07T05:09:47;9.07;;;7.22;;
79533;SDS011;68982;52.160;6.736;2023-09-07T05:12:13;9.13;;;6.65;;
79533;SDS011;68982;52.160;6.736;2023-09-07T05:14:43;10.38;;;7.78;;
79533;SDS011;68982;52.160;6.736;2023-09-07T05:17:08;8.30;;;6.95;;
79533;SDS011;68982;52.160;6.736;2023-09-07T05:19:34;9.23;;;6.82;;
79533;SDS011;68982;52.160;6.736;2023-09-07T05:21:59;11.00;;;7.45;;
79533;SDS011;68982;52.160;6.736;2023-09-07T05:24:24;9.73;;;6.57;;
79533;SDS011;68982;52.160;6.736;2023-09-07T05:26:50;8.00;;;6.47;;
79533;SDS011;68982;52.160;6.736;2023-09-07T05:29:15;11.80;;;7.28;;
79533;SDS011;68982;52.160;6.736;2023-09-07T05:31:40;8.30;;;6.68;;
79533;SDS011;68982;52.160;6.736;2023-09-07T05:34:06;9.25;;;6.80;;
79533;SDS011;68982;52.160;6.736;2023-09-07T05:36:31;10.32;;;6.93;;
79533;SDS011;68982;52.160;6.736;2023-09-07T05:38:57;9.30;;;6.95;;
79533;SDS011;68982;52.160;6.736;2023-09-07T05:41:22;10.15;;;7.53;;
79533;SDS011;68982;52.160;6.736;2023-09-07T05:43:47;8.15;;;6.65;;
79533;SDS011;68982;52.160;6.736;2023-09-07T05:46:14;9.88;;;6.60;;
79533;SDS011;68982;52.160;6.736;2023-09-07T05:48:39;12.65;;;7.55;;
79533;SDS011;68982;52.160;6.736;2023-09-07T05:51:05;10.32;;;6.18;;
79533;SDS011;68982;52.160;6.736;2023-09-07T05:53:30;11.63;;;6.30;;
79533;SDS011;68982;52.160;6.736;2023-09-07T05:55:56;9.75;;;6.35;;
79533;SDS011;68982;52.160;6.736;2023-09-07T05:58:21;10.23;;;6.35;;
79533;SDS011;68982;52.160;6.736;2023-09-07T06:00:47;8.82;;;6.70;;
79533;SDS011;68982;52.160;6.736;2023-09-07T06:03:12;10.18;;;6.68;;
79533;SDS011;68982;52.160;6.736;2023-09-07T06:05:38;10.68;;;6.32;;
79533;SDS011;68982;52.160;6.736;2023-09-07T06:08:04;12.40;;;7.85;;
79533;SDS011;68982;52.160;6.736;2023-09-07T06:10:31;10.07;;;7.13;;
79533;SDS011;68982;52.160;6.736;2023-09-07T06:12:56;9.57;;;6.93;;
79533;SDS011;68982;52.160;6.736;2023-09-07T06:15:22;9.18;;;6.80;;
79533;SDS011;68982;52.160;6.736;2023-09-07T06:17:48;10.05;;;6.43;;
79533;SDS011;68982;52.160;6.736;2023-09-07T06:20:14;9.45;;;6.93;;
79533;SDS011;68982;52.160;6.736;2023-09-07T06:22:40;8.07;;;6.60;;
79533;SDS011;68982;52.160;6.736;2023-09-07T06:25:06;8.52;;;6.28;;
79533;SDS011;68982;52.160;6.736;2023-09-07T06:27:31;16.20;;;6.78;;
79533;SDS011;68982;52.160;6.736;2023-09-07T06:29:57;7.65;;;6.22;;
79533;SDS011;68982;52.160;6.736;2023-09-07T06:32:22;9.50;;;7.68;;
79533;SDS011;68982;52.160;6.736;2023-09-07T06:34:47;8.90;;;6.10;;
79533;SDS011;68982;52.160;6.736;2023-09-07T06:37:13;11.18;;;6.88;;
79533;SDS011;68982;52.160;6.736;2023-09-07T06:39:38;11.07;;;6.72;;
79533;SDS011;68982;52.160;6.736;2023-09-07T06:42:04;8.82;;;6.10;;
79533;SDS011;68982;52.160;6.736;2023-09-07T06:44:29;7.60;;;6.25;;
79533;SDS011;68982;52.160;6.736;2023-09-07T06:46:55;10.85;;;7.20;;
79533;SDS011;68982;52.160;6.736;2023-09-07T06:49:21;7.95;;;6.45;;
79533;SDS011;68982;52.160;6.736;2023-09-07T06:51:46;8.90;;;6.53;;
79533;SDS011;68982;52.160;6.736;2023-09-07T06:54:12;9.82;;;6.47;;
79533;SDS011;68982;52.160;6.736;2023-09-07T06:56:38;9.07;;;6.45;;
79533;SDS011;68982;52.160;6.736;2023-09-07T06:59:03;9.45;;;6.07;;
79533;SDS011;68982;52.160;6.736;2023-09-07T07:01:29;8.18;;;6.65;;
79533;SDS011;68982;52.160;6.736;2023-09-07T07:03:54;8.65;;;6.38;;
79533;SDS011;68982;52.160;6.736;2023-09-07T07:08:47;9.30;;;6.87;;
79533;SDS011;68982;52.160;6.736;2023-09-07T07:11:12;9.10;;;6.45;;
79533;SDS011;68982;52.160;6.736;2023-09-07T07:13:37;8.35;;;6.10;;
79533;SDS011;68982;52.160;6.736;2023-09-07T07:16:03;8.55;;;5.97;;
79533;SDS011;68982;52.160;6.736;2023-09-07T07:18:29;11.25;;;6.28;;
79533;SDS011;68982;52.160;6.736;2023-09-07T07:20:55;8.32;;;6.00;;
79533;SDS011;68982;52.160;6.736;2023-09-07T07:23:20;8.30;;;5.65;;
79533;SDS011;68982;52.160;6.736;2023-09-07T07:25:46;7.68;;;5.47;;
79533;SDS011;68982;52.160;6.736;2023-09-07T07:28:11;8.25;;;5.97;;
79533;SDS011;68982;52.160;6.736;2023-09-07T07:30:37;8.55;;;5.85;;
79533;SDS011;68982;52.160;6.736;2023-09-07T07:33:05;7.80;;;5.68;;
79533;SDS011;68982;52.160;6.736;2023-09-07T07:35:31;7.55;;;5.57;;
79533;SDS011;68982;52.160;6.736;2023-09-07T07:37:58;10.00;;;5.95;;
79533;SDS011;68982;52.160;6.736;2023-09-07T07:40:23;7.57;;;5.35;;
79533;SDS011;68982;52.160;6.736;2023-09-07T07:42:50;7.28;;;5.82;;
79533;SDS011;68982;52.160;6.736;2023-09-07T07:45:17;7.40;;;5.35;;
79533;SDS011;68982;52.160;6.736;2023-09-07T07:47:45;10.30;;;5.63;;
79533;SDS011;68982;52.160;6.736;2023-09-07T07:50:10;9.82;;;5.88;;
79533;SDS011;68982;52.160;6.736;2023-09-07T07:52:36;7.13;;;5.15;;
79533;SDS011;68982;52.160;6.736;2023-09-07T07:55:02;8.00;;;5.40;;
79533;SDS011;68982;52.160;6.736;2023-09-07T07:57:27;8.65;;;5.30;;
79533;SDS011;68982;52.160;6.736;2023-09-07T07:59:53;7.70;;;5.22;;
79533;SDS011;68982;52.160;6.736;2023-09-07T08:02:20;7.35;;;4.88;;
79533;SDS011;68982;52.160;6.736;2023-09-07T08:04:45;8.40;;;5.03;;
79533;SDS011;68982;52.160;6.736;2023-09-07T08:07:11;6.63;;;5.00;;
79533;SDS011;68982;52.160;6.736;2023-09-07T08:09:36;5.95;;;4.50;;
79533;SDS011;68982;52.160;6.736;2023-09-07T08:12:03;7.63;;;4.50;;
79533;SDS011;68982;52.160;6.736;2023-09-07T08:14:29;7.97;;;5.05;;
79533;SDS011;68982;52.160;6.736;2023-09-07T08:16:56;11.13;;;5.00;;
79533;SDS011;68982;52.160;6.736;2023-09-07T08:19:22;6.78;;;4.80;;
79533;SDS011;68982;52.160;6.736;2023-09-07T08:21:48;8.73;;;4.88;;
79533;SDS011;68982;52.160;6.736;2023-09-07T08:24:13;9.90;;;4.93;;
79533;SDS011;68982;52.160;6.736;2023-09-07T08:26:39;8.05;;;5.25;;
79533;SDS011;68982;52.160;6.736;2023-09-07T08:29:04;7.90;;;4.50;;
79533;SDS011;68982;52.160;6.736;2023-09-07T08:31:30;7.82;;;5.07;;
79533;SDS011;68982;52.160;6.736;2023-09-07T08:34:03;6.65;;;5.22;;
79533;SDS011;68982;52.160;6.736;2023-09-07T08:36:31;7.63;;;5.32;;
79533;SDS011;68982;52.160;6.736;2023-09-07T08:38:59;11.73;;;6.22;;
79533;SDS011;68982;52.160;6.736;2023-09-07T08:41:26;7.10;;;5.45;;
79533;SDS011;68982;52.160;6.736;2023-09-07T08:43:54;7.85;;;5.65;;
79533;SDS011;68982;52.160;6.736;2023-09-07T08:46:22;7.43;;;5.07;;
79533;SDS011;68982;52.160;6.736;2023-09-07T08:48:49;6.65;;;5.43;;
79533;SDS011;68982;52.160;6.736;2023-09-07T08:51:15;9.25;;;4.68;;
79533;SDS011;68982;52.160;6.736;2023-09-07T08:53:42;8.07;;;5.85;;
79533;SDS011;68982;52.160;6.736;2023-09-07T08:56:11;8.00;;;4.53;;
79533;SDS011;68982;52.160;6.736;2023-09-07T08:58:37;6.63;;;5.30;;
79533;SDS011;68982;52.160;6.736;2023-09-07T09:01:02;8.27;;;4.47;;
79533;SDS011;68982;52.160;6.736;2023-09-07T09:03:28;5.95;;;5.13;;
79533;SDS011;68982;52.160;6.736;2023-09-07T09:08:20;6.30;;;5.05;;
79533;SDS011;68982;52.160;6.736;2023-09-07T09:10:49;6.75;;;5.10;;
79533;SDS011;68982;52.160;6.736;2023-09-07T09:13:27;8.27;;;4.72;;
79533;SDS011;68982;52.160;6.736;2023-09-07T09:15:53;8.02;;;4.53;;
79533;SDS011;68982;52.160;6.736;2023-09-07T09:18:18;9.30;;;4.60;;
79533;SDS011;68982;52.160;6.736;2023-09-07T09:20:43;6.57;;;4.68;;
79533;SDS011;68982;52.160;6.736;2023-09-07T09:23:09;5.30;;;4.15;;
79533;SDS011;68982;52.160;6.736;2023-09-07T09:25:36;5.68;;;4.43;;
79533;SDS011;68982;52.160;6.736;2023-09-07T09:28:02;7.80;;;4.45;;
79533;SDS011;68982;52.160;6.736;2023-09-07T09:32:53;6.90;;;3.90;;
79533;SDS011;68982;52.160;6.736;2023-09-07T09:35:19;6.32;;;4.97;;
79533;SDS011;68982;52.160;6.736;2023-09-07T09:37:45;7.53;;;4.43;;
79533;SDS011;68982;52.160;6.736;2023-09-07T09:40:13;6.18;;;4.45;;
79533;SDS011;68982;52.160;6.736;2023-09-07T09:42:43;12.05;;;4.80;;
79533;SDS011;68982;52.160;6.736;2023-09-07T09:45:09;5.75;;;3.65;;
79533;SDS011;68982;52.160;6.736;2023-09-07T09:47:42;8.93;;;5.03;;
79533;SDS011;68982;52.160;6.736;2023-09-07T09:50:08;5.57;;;4.03;;
79533;SDS011;68982;52.160;6.736;2023-09-07T09:52:35;6.30;;;3.95;;
79533;SDS011;68982;52.160;6.736;2023-09-07T09:55:03;5.38;;;4.82;;
79533;SDS011;68982;52.160;6.736;2023-09-07T09:57:31;6.93;;;4.20;;
79533;SDS011;68982;52.160;6.736;2023-09-07T09:59:58;6.05;;;3.90;;
79533;SDS011;68982;52.160;6.736;2023-09-07T10:02:24;6.63;;;4.38;;
79533;SDS011;68982;52.160;6.736;2023-09-07T10:04:51;6.53;;;3.95;;
79533;SDS011;68982;52.160;6.736;2023-09-07T10:07:18;7.45;;;4.30;;
79533;SDS011;68982;52.160;6.736;2023-09-07T10:12:13;5.85;;;4.65;;
79533;SDS011;68982;52.160;6.736;2023-09-07T10:14:39;6.53;;;4.43;;
79533;SDS011;68982;52.160;6.736;2023-09-07T10:17:05;5.63;;;4.75;;
79533;SDS011;68982;52.160;6.736;2023-09-07T10:19:31;5.60;;;4.57;;
79533;SDS011;68982;52.160;6.736;2023-09-07T10:21:56;6.78;;;4.53;;
79533;SDS011;68982;52.160;6.736;2023-09-07T10:24:26;5.70;;;4.07;;
79533;SDS011;68982;52.160;6.736;2023-09-07T10:27:00;6.32;;;4.28;;
79533;SDS011;68982;52.160;6.736;2023-09-07T10:29:45;9.90;;;3.88;;
79533;SDS011;68982;52.160;6.736;2023-09-07T10:32:17;7.30;;;4.88;;
79533;SDS011;68982;52.160;6.736;2023-09-07T10:34:43;7.30;;;4.15;;
79533;SDS011;68982;52.160;6.736;2023-09-07T10:37:09;11.18;;;4.10;;
79533;SDS011;68982;52.160;6.736;2023-09-07T10:39:37;12.25;;;4.78;;
79533;SDS011;68982;52.160;6.736;2023-09-07T10:42:04;5.22;;;4.05;;
79533;SDS011;68982;52.160;6.736;2023-09-07T10:44:30;6.68;;;4.50;;
79533;SDS011;68982;52.160;6.736;2023-09-07T10:46:58;8.13;;;4.53;;
79533;SDS011;68982;52.160;6.736;2023-09-07T10:49:25;5.93;;;3.92;;
79533;SDS011;68982;52.160;6.736;2023-09-07T10:51:50;7.28;;;3.97;;
79533;SDS011;68982;52.160;6.736;2023-09-07T10:54:23;8.65;;;4.53;;
79533;SDS011;68982;52.160;6.736;2023-09-07T10:56:50;5.47;;;3.92;;
79533;SDS011;68982;52.160;6.736;2023-09-07T10:59:16;5.28;;;4.25;;
79533;SDS011;68982;52.160;6.736;2023-09-07T11:01:45;6.63;;;4.75;;
79533;SDS011;68982;52.160;6.736;2023-09-07T11:04:11;6.07;;;3.97;;
79533;SDS011;68982;52.160;6.736;2023-09-07T11:06:36;5.25;;;4.00;;
79533;SDS011;68982;52.160;6.736;2023-09-07T11:09:03;6.55;;;4.40;;
79533;SDS011;68982;52.160;6.736;2023-09-07T11:11:31;5.00;;;3.85;;
79533;SDS011;68982;52.160;6.736;2023-09-07T11:13:58;7.25;;;4.53;;
79533;SDS011;68982;52.160;6.736;2023-09-07T11:16:24;5.22;;;4.25;;
79533;SDS011;68982;52.160;6.736;2023-09-07T11:18:52;5.78;;;3.92;;
79533;SDS011;68982;52.160;6.736;2023-09-07T11:21:19;5.35;;;4.75;;
79533;SDS011;68982;52.160;6.736;2023-09-07T11:23:45;7.07;;;4.55;;
79533;SDS011;68982;52.160;6.736;2023-09-07T11:26:10;5.10;;;4.20;;
79533;SDS011;68982;52.160;6.736;2023-09-07T11:28:35;6.72;;;4.57;;
79533;SDS011;68982;52.160;6.736;2023-09-07T11:31:03;7.18;;;4.72;;
79533;SDS011;68982;52.160;6.736;2023-09-07T11:33:31;8.57;;;3.90;;
79533;SDS011;68982;52.160;6.736;2023-09-07T11:35:58;6.13;;;4.53;;
79533;SDS011;68982;52.160;6.736;2023-09-07T11:38:28;8.50;;;3.80;;
79533;SDS011;68982;52.160;6.736;2023-09-07T11:40:55;6.43;;;4.50;;
79533;SDS011;68982;52.160;6.736;2023-09-07T11:43:21;8.70;;;4.38;;
79533;SDS011;68982;52.160;6.736;2023-09-07T11:45:47;4.63;;;4.22;;
79533;SDS011;68982;52.160;6.736;2023-09-07T11:48:13;5.05;;;3.95;;
79533;SDS011;68982;52.160;6.736;2023-09-07T11:50:39;5.10;;;3.60;;
79533;SDS011;68982;52.160;6.736;2023-09-07T11:55:31;5.50;;;4.20;;
79533;SDS011;68982;52.160;6.736;2023-09-07T11:57:56;6.60;;;4.00;;
79533;SDS011;68982;52.160;6.736;2023-09-07T12:00:22;8.02;;;4.60;;
79533;SDS011;68982;52.160;6.736;2023-09-07T12:02:48;4.72;;;3.97;;
79533;SDS011;68982;52.160;6.736;2023-09-07T12:05:14;4.88;;;3.63;;
79533;SDS011;68982;52.160;6.736;2023-09-07T12:10:06;4.95;;;4.10;;
79533;SDS011;68982;52.160;6.736;2023-09-07T12:12:36;5.43;;;4.63;;
79533;SDS011;68982;52.160;6.736;2023-09-07T12:15:01;10.27;;;4.00;;
79533;SDS011;68982;52.160;6.736;2023-09-07T12:17:29;6.40;;;4.60;;
79533;SDS011;68982;52.160;6.736;2023-09-07T12:19:58;5.00;;;4.35;;
79533;SDS011;68982;52.160;6.736;2023-09-07T12:22:23;6.22;;;3.83;;
79533;SDS011;68982;52.160;6.736;2023-09-07T12:24:49;8.52;;;3.85;;
79533;SDS011;68982;52.160;6.736;2023-09-07T12:27:14;6.40;;;3.95;;
79533;SDS011;68982;52.160;6.736;2023-09-07T12:29:40;7.85;;;4.82;;
79533;SDS011;68982;52.160;6.736;2023-09-07T12:32:05;5.35;;;4.28;;
79533;SDS011;68982;52.160;6.736;2023-09-07T12:34:31;5.00;;;4.30;;
79533;SDS011;68982;52.160;6.736;2023-09-07T12:36:56;8.70;;;3.88;;
79533;SDS011;68982;52.160;6.736;2023-09-07T12:39:21;6.95;;;4.25;;
79533;SDS011;68982;52.160;6.736;2023-09-07T12:41:47;7.30;;;5.00;;
79533;SDS011;68982;52.160;6.736;2023-09-07T12:44:12;5.28;;;3.60;;
79533;SDS011;68982;52.160;6.736;2023-09-07T12:46:38;5.00;;;4.00;;
79533;SDS011;68982;52.160;6.736;2023-09-07T12:49:03;6.90;;;3.80;;
79533;SDS011;68982;52.160;6.736;2023-09-07T12:51:29;5.25;;;4.30;;
79533;SDS011;68982;52.160;6.736;2023-09-07T12:53:54;4.80;;;3.50;;
79533;SDS011;68982;52.160;6.736;2023-09-07T12:56:20;5.80;;;3.90;;
79533;SDS011;68982;52.160;6.736;2023-09-07T12:58:45;5.57;;;4.25;;
79533;SDS011;68982;52.160;6.736;2023-09-07T13:01:11;8.70;;;4.60;;
79533;SDS011;68982;52.160;6.736;2023-09-07T13:03:40;6.15;;;4.50;;
79533;SDS011;68982;52.160;6.736;2023-09-07T13:06:05;5.88;;;4.38;;
79533;SDS011;68982;52.160;6.736;2023-09-07T13:08:31;5.22;;;4.30;;
79533;SDS011;68982;52.160;6.736;2023-09-07T13:10:56;4.32;;;3.80;;
79533;SDS011;68982;52.160;6.736;2023-09-07T13:13:24;6.00;;;4.50;;
79533;SDS011;68982;52.160;6.736;2023-09-07T13:15:53;6.07;;;4.57;;
79533;SDS011;68982;52.160;6.736;2023-09-07T13:18:19;4.78;;;3.65;;
79533;SDS011;68982;52.160;6.736;2023-09-07T13:20:44;8.00;;;4.25;;
79533;SDS011;68982;52.160;6.736;2023-09-07T13:23:10;4.00;;;3.60;;
79533;SDS011;68982;52.160;6.736;2023-09-07T13:25:35;5.85;;;4.30;;
79533;SDS011;68982;52.160;6.736;2023-09-07T13:28:01;5.65;;;4.47;;
79533;SDS011;68982;52.160;6.736;2023-09-07T13:30:26;5.38;;;4.07;;
79533;SDS011;68982;52.160;6.736;2023-09-07T13:32:51;7.32;;;4.85;;
79533;SDS011;68982;52.160;6.736;2023-09-07T13:35:17;5.80;;;3.63;;
79533;SDS011;68982;52.160;6.736;2023-09-07T13:37:43;6.45;;;4.20;;
79533;SDS011;68982;52.160;6.736;2023-09-07T13:40:08;7.13;;;4.00;;
79533;SDS011;68982;52.160;6.736;2023-09-07T13:42:34;6.22;;;3.90;;
79533;SDS011;68982;52.160;6.736;2023-09-07T13:45:00;6.57;;;4.43;;
79533;SDS011;68982;52.160;6.736;2023-09-07T13:47:25;6.07;;;4.03;;
79533;SDS011;68982;52.160;6.736;2023-09-07T13:49:50;5.68;;;4.32;;
79533;SDS011;68982;52.160;6.736;2023-09-07T13:52:16;4.95;;;4.18;;
79533;SDS011;68982;52.160;6.736;2023-09-07T13:54:41;4.90;;;4.30;;
79533;SDS011;68982;52.160;6.736;2023-09-07T13:57:07;5.75;;;4.15;;
79533;SDS011;68982;52.160;6.736;2023-09-07T13:59:33;5.22;;;4.53;;
79533;SDS011;68982;52.160;6.736;2023-09-07T14:01:59;7.13;;;4.57;;
79533;SDS011;68982;52.160;6.736;2023-09-07T14:04:25;4.72;;;3.70;;
79533;SDS011;68982;52.160;6.736;2023-09-07T14:06:51;6.25;;;3.65;;
79533;SDS011;68982;52.160;6.736;2023-09-07T14:09:17;11.90;;;4.50;;
79533;SDS011;68982;52.160;6.736;2023-09-07T14:11:42;4.80;;;3.70;;
79533;SDS011;68982;52.160;6.736;2023-09-07T14:14:08;5.53;;;4.40;;
79533;SDS011;68982;52.160;6.736;2023-09-07T14:16:33;4.50;;;3.80;;
79533;SDS011;68982;52.160;6.736;2023-09-07T14:18:58;4.45;;;3.97;;
79533;SDS011;68982;52.160;6.736;2023-09-07T14:21:24;7.30;;;3.88;;
79533;SDS011;68982;52.160;6.736;2023-09-07T14:23:49;6.22;;;4.07;;
79533;SDS011;68982;52.160;6.736;2023-09-07T14:26:15;6.53;;;4.57;;
79533;SDS011;68982;52.160;6.736;2023-09-07T14:28:40;6.80;;;4.40;;
79533;SDS011;68982;52.160;6.736;2023-09-07T14:31:06;4.72;;;4.28;;
79533;SDS011;68982;52.160;6.736;2023-09-07T14:33:35;5.40;;;4.35;;
79533;SDS011;68982;52.160;6.736;2023-09-07T14:36:05;4.80;;;4.15;;
79533;SDS011;68982;52.160;6.736;2023-09-07T14:38:31;7.88;;;4.38;;
79533;SDS011;68982;52.160;6.736;2023-09-07T14:40:59;9.45;;;4.32;;
79533;SDS011;68982;52.160;6.736;2023-09-07T14:43:25;6.30;;;3.88;;
79533;SDS011;68982;52.160;6.736;2023-09-07T14:45:51;4.88;;;4.22;;
79533;SDS011;68982;52.160;6.736;2023-09-07T14:48:16;5.50;;;3.45;;
79533;SDS011;68982;52.160;6.736;2023-09-07T14:50:41;6.35;;;4.28;;
79533;SDS011;68982;52.160;6.736;2023-09-07T14:53:07;4.80;;;4.30;;
79533;SDS011;68982;52.160;6.736;2023-09-07T14:55:32;5.57;;;4.40;;